sensor_id;sensor_type;location;lat;lon;timestamp;pressure;altitude;pressure_sealevel;temperature;humidity
76122;BME280;64853;53.200;6.080;2022-12-18T00:00:20;102729.94;;;19.28;29.25
76122;BME280;64853;53.200;6.080;2022-12-18T00:05:13;102723.22;;;19.24;29.00
76122;BME280;64853;53.200;6.080;2022-12-18T00:10:05;102714.84;;;19.19;29.18
76122;BME280;64853;53.200;6.080;2022-12-18T00:14:57;102712.00;;;19.14;29.12
76122;BME280;64853;53.200;6.080;2022-12-18T00:19:48;102707.56;;;19.13;29.12
76122;BME280;64853;53.200;6.080;2022-12-18T00:24:41;102718.03;;;19.10;29.21
76122;BME280;64853;53.200;6.080;2022-12-18T00:29:33;102721.53;;;19.06;29.11
76122;BME280;64853;53.200;6.080;2022-12-18T00:34:24;102711.31;;;19.06;29.17
76122;BME280;64853;53.200;6.080;2022-12-18T00:39:16;102715.19;;;19.05;29.02
76122;BME280;64853;53.200;6.080;2022-12-18T00:44:10;102714.25;;;19.00;29.19
76122;BME280;64853;53.200;6.080;2022-12-18T00:49:02;102724.22;;;19.01;29.27
76122;BME280;64853;53.200;6.080;2022-12-18T00:53:54;102731.63;;;19.00;29.22
76122;BME280;64853;53.200;6.080;2022-12-18T00:58:45;102730.22;;;18.98;29.28
76122;BME280;64853;53.200;6.080;2022-12-18T01:03:38;102731.06;;;18.98;29.29
76122;BME280;64853;53.200;6.080;2022-12-18T01:08:29;102730.47;;;18.96;29.07
76122;BME280;64853;53.200;6.080;2022-12-18T01:13:21;102743.19;;;18.97;29.29
76122;BME280;64853;53.200;6.080;2022-12-18T01:18:12;102757.00;;;18.97;29.05
76122;BME280;64853;53.200;6.080;2022-12-18T01:23:05;102768.03;;;18.97;29.37
76122;BME280;64853;53.200;6.080;2022-12-18T01:27:57;102758.09;;;18.96;29.04
76122;BME280;64853;53.200;6.080;2022-12-18T01:32:48;102749.81;;;18.96;29.30
76122;BME280;64853;53.200;6.080;2022-12-18T01:37:39;102749.81;;;18.96;29.14
76122;BME280;64853;53.200;6.080;2022-12-18T01:42:32;102741.53;;;18.96;29.16
76122;BME280;64853;53.200;6.080;2022-12-18T01:47:27;102761.69;;;18.97;29.03
76122;BME280;64853;53.200;6.080;2022-12-18T01:52:21;102778.25;;;18.97;28.84
76122;BME280;64853;53.200;6.080;2022-12-18T01:57:13;102784.63;;;18.97;29.11
76122;BME280;64853;53.200;6.080;2022-12-18T02:02:05;102781.63;;;18.99;28.94
76122;BME280;64853;53.200;6.080;2022-12-18T02:07:01;102790.16;;;18.97;29.00
76122;BME280;64853;53.200;6.080;2022-12-18T02:11:59;102778.25;;;18.97;29.13
76122;BME280;64853;53.200;6.080;2022-12-18T02:17:01;102768.28;;;18.96;28.87
76122;BME280;64853;53.200;6.080;2022-12-18T02:22:01;102767.47;;;18.95;28.98
76122;BME280;64853;53.200;6.080;2022-12-18T02:27:00;102750.88;;;18.95;29.02
76122;BME280;64853;53.200;6.080;2022-12-18T02:31:56;102750.63;;;18.97;29.13
76122;BME280;64853;53.200;6.080;2022-12-18T02:36:53;102745.13;;;18.97;28.81
76122;BME280;64853;53.200;6.080;2022-12-18T02:41:45;102743.19;;;18.97;28.97
76122;BME280;64853;53.200;6.080;2022-12-18T02:46:41;102740.41;;;18.97;29.05
76122;BME280;64853;53.200;6.080;2022-12-18T02:51:41;102751.47;;;18.97;28.84
76122;BME280;64853;53.200;6.080;2022-12-18T02:56:38;102737.66;;;18.97;29.02
76122;BME280;64853;53.200;6.080;2022-12-18T03:01:35;102739.34;;;18.98;28.88
76122;BME280;64853;53.200;6.080;2022-12-18T03:06:37;102732.75;;;18.99;28.57
76122;BME280;64853;53.200;6.080;2022-12-18T03:11:33;102741.03;;;18.99;28.84
76122;BME280;64853;53.200;6.080;2022-12-18T03:16:43;102749.31;;;18.99;28.67
76122;BME280;64853;53.200;6.080;2022-12-18T03:21:40;102748.47;;;18.99;28.58
76122;BME280;64853;53.200;6.080;2022-12-18T03:26:33;102744.38;;;19.01;28.67
76122;BME280;64853;53.200;6.080;2022-12-18T03:31:28;102731.88;;;18.99;28.75
76122;BME280;64853;53.200;6.080;2022-12-18T03:36:21;102739.94;;;19.00;28.78
76122;BME280;64853;53.200;6.080;2022-12-18T03:41:19;102741.63;;;19.01;28.56
76122;BME280;64853;53.200;6.080;2022-12-18T03:46:17;102740.78;;;19.01;28.75
76122;BME280;64853;53.200;6.080;2022-12-18T03:51:18;102733.31;;;19.01;28.49
76122;BME280;64853;53.200;6.080;2022-12-18T03:56:17;102737.78;;;19.02;28.76
76122;BME280;64853;53.200;6.080;2022-12-18T04:01:12;102739.44;;;19.03;28.50
76122;BME280;64853;53.200;6.080;2022-12-18T04:06:06;102743.31;;;19.02;28.74
76122;BME280;64853;53.200;6.080;2022-12-18T04:10:59;102746.66;;;19.04;28.25
76122;BME280;64853;53.200;6.080;2022-12-18T04:15:52;102750.47;;;19.03;28.42
76122;BME280;64853;53.200;6.080;2022-12-18T04:20:43;102741.94;;;19.05;28.57
76122;BME280;64853;53.200;6.080;2022-12-18T04:25:35;102725.69;;;19.08;28.67
76122;BME280;64853;53.200;6.080;2022-12-18T04:30:26;102733.13;;;19.20;28.64
76122;BME280;64853;53.200;6.080;2022-12-18T04:35:19;102733.09;;;19.37;28.33
76122;BME280;64853;53.200;6.080;2022-12-18T04:40:11;102728.91;;;19.51;28.06
76122;BME280;64853;53.200;6.080;2022-12-18T04:45:03;102743.84;;;19.67;28.21
76122;BME280;64853;53.200;6.080;2022-12-18T04:49:55;102745.19;;;19.81;28.03
76122;BME280;64853;53.200;6.080;2022-12-18T04:54:48;102740.38;;;19.94;27.86
76122;BME280;64853;53.200;6.080;2022-12-18T04:59:39;102741.09;;;20.06;28.26
76122;BME280;64853;53.200;6.080;2022-12-18T05:04:31;102747.38;;;20.18;27.80
76122;BME280;64853;53.200;6.080;2022-12-18T05:09:23;102749.19;;;20.30;27.61
76122;BME280;64853;53.200;6.080;2022-12-18T05:14:16;102760.75;;;20.44;27.62
76122;BME280;64853;53.200;6.080;2022-12-18T05:19:07;102749.53;;;20.55;27.34
76122;BME280;64853;53.200;6.080;2022-12-18T05:23:59;102742.44;;;20.65;27.88
76122;BME280;64853;53.200;6.080;2022-12-18T05:28:50;102747.25;;;20.74;27.25
76122;BME280;64853;53.200;6.080;2022-12-18T05:33:43;102760.09;;;20.86;27.34
76122;BME280;64853;53.200;6.080;2022-12-18T05:38:36;102766.03;;;20.95;27.23
76122;BME280;64853;53.200;6.080;2022-12-18T05:43:28;102786.66;;;21.04;27.01
76122;BME280;64853;53.200;6.080;2022-12-18T05:48:19;102801.75;;;21.13;27.14
76122;BME280;64853;53.200;6.080;2022-12-18T05:53:13;102802.91;;;21.22;27.44
76122;BME280;64853;53.200;6.080;2022-12-18T05:58:07;102805.25;;;21.31;26.89
76122;BME280;64853;53.200;6.080;2022-12-18T06:02:58;102800.28;;;21.38;26.90
76122;BME280;64853;53.200;6.080;2022-12-18T06:07:50;102795.94;;;21.47;27.03
76122;BME280;64853;53.200;6.080;2022-12-18T06:12:43;102791.00;;;21.54;27.00
76122;BME280;64853;53.200;6.080;2022-12-18T06:17:34;102777.75;;;21.61;26.83
76122;BME280;64853;53.200;6.080;2022-12-18T06:22:26;102765.88;;;21.66;26.79
76122;BME280;64853;53.200;6.080;2022-12-18T06:27:18;102773.75;;;21.79;26.73
76122;BME280;64853;53.200;6.080;2022-12-18T06:32:11;102767.13;;;21.86;26.51
76122;BME280;64853;53.200;6.080;2022-12-18T06:37:02;102763.03;;;21.93;26.65
76122;BME280;64853;53.200;6.080;2022-12-18T06:41:54;102752.53;;;22.01;26.91
76122;BME280;64853;53.200;6.080;2022-12-18T06:46:45;102746.75;;;22.07;26.51
76122;BME280;64853;53.200;6.080;2022-12-18T06:51:38;102738.44;;;22.12;26.35
76122;BME280;64853;53.200;6.080;2022-12-18T06:56:29;102733.16;;;22.16;26.72
76122;BME280;64853;53.200;6.080;2022-12-18T07:01:21;102737.09;;;22.20;26.44
76122;BME280;64853;53.200;6.080;2022-12-18T07:06:13;102719.31;;;22.21;26.63
76122;BME280;64853;53.200;6.080;2022-12-18T07:11:07;102708.50;;;22.25;26.18
76122;BME280;64853;53.200;6.080;2022-12-18T07:16:04;102722.69;;;22.28;26.20
76122;BME280;64853;53.200;6.080;2022-12-18T07:20:55;102719.34;;;22.31;26.13
76122;BME280;64853;53.200;6.080;2022-12-18T07:25:47;102714.34;;;22.33;26.15
76122;BME280;64853;53.200;6.080;2022-12-18T07:30:39;102702.16;;;22.34;26.33
76122;BME280;64853;53.200;6.080;2022-12-18T07:35:32;102719.91;;;22.33;26.38
76122;BME280;64853;53.200;6.080;2022-12-18T07:40:31;102724.72;;;21.95;27.12
76122;BME280;64853;53.200;6.080;2022-12-18T07:45:22;102734.19;;;21.62;27.39
76122;BME280;64853;53.200;6.080;2022-12-18T07:50:15;102739.91;;;21.45;27.78
76122;BME280;64853;53.200;6.080;2022-12-18T07:55:07;102722.66;;;21.38;27.58
76122;BME280;64853;53.200;6.080;2022-12-18T07:59:59;102712.31;;;21.28;28.10
76122;BME280;64853;53.200;6.080;2022-12-18T08:04:50;102698.69;;;21.21;27.75
76122;BME280;64853;53.200;6.080;2022-12-18T08:09:43;102699.22;;;21.18;27.78
76122;BME280;64853;53.200;6.080;2022-12-18T08:14:34;102696.97;;;21.15;27.80
76122;BME280;64853;53.200;6.080;2022-12-18T08:19:26;102699.13;;;21.08;27.79
76122;BME280;64853;53.200;6.080;2022-12-18T08:24:17;102706.16;;;20.94;28.08
76122;BME280;64853;53.200;6.080;2022-12-18T08:29:10;102701.06;;;20.80;28.17
76122;BME280;64853;53.200;6.080;2022-12-18T08:34:02;102703.97;;;20.68;28.55
76122;BME280;64853;53.200;6.080;2022-12-18T08:38:54;102704.19;;;20.62;28.26
76122;BME280;64853;53.200;6.080;2022-12-18T08:43:45;102729.63;;;20.59;28.40
76122;BME280;64853;53.200;6.080;2022-12-18T08:48:56;102729.94;;;20.62;28.25
76122;BME280;64853;53.200;6.080;2022-12-18T08:53:48;102724.47;;;20.67;28.39
76122;BME280;64853;53.200;6.080;2022-12-18T08:58:39;102719.75;;;20.68;28.70
76122;BME280;64853;53.200;6.080;2022-12-18T09:03:31;102724.47;;;20.67;28.69
76122;BME280;64853;53.200;6.080;2022-12-18T09:08:24;102714.72;;;20.65;28.33
76122;BME280;64853;53.200;6.080;2022-12-18T09:13:17;102709.16;;;20.60;28.57
76122;BME280;64853;53.200;6.080;2022-12-18T09:18:09;102705.25;;;20.61;28.19
76122;BME280;64853;53.200;6.080;2022-12-18T09:23:00;102717.97;;;20.57;28.74
76122;BME280;64853;53.200;6.080;2022-12-18T09:27:53;102721.78;;;20.50;28.75
76122;BME280;64853;53.200;6.080;2022-12-18T09:32:44;102722.22;;;20.42;28.10
76122;BME280;64853;53.200;6.080;2022-12-18T09:37:36;102732.72;;;20.40;28.35
76122;BME280;64853;53.200;6.080;2022-12-18T09:42:28;102733.81;;;20.39;28.72
76122;BME280;64853;53.200;6.080;2022-12-18T09:47:24;102729.94;;;20.40;28.76
76122;BME280;64853;53.200;6.080;2022-12-18T09:52:22;102714.44;;;20.39;28.64
76122;BME280;64853;53.200;6.080;2022-12-18T09:57:17;102713.03;;;20.36;28.18
76122;BME280;64853;53.200;6.080;2022-12-18T10:02:15;102706.31;;;20.32;28.48
76122;BME280;64853;53.200;6.080;2022-12-18T10:07:11;102685.00;;;20.33;28.52
76122;BME280;64853;53.200;6.080;2022-12-18T10:12:11;102672.22;;;20.32;28.48
76122;BME280;64853;53.200;6.080;2022-12-18T10:17:21;102680.78;;;20.30;28.34
76122;BME280;64853;53.200;6.080;2022-12-18T10:22:36;102655.31;;;20.28;28.54
76122;BME280;64853;53.200;6.080;2022-12-18T10:27:30;102642.00;;;20.25;28.51
76122;BME280;64853;53.200;6.080;2022-12-18T10:32:24;102640.13;;;20.31;28.40
76122;BME280;64853;53.200;6.080;2022-12-18T10:37:17;102621.28;;;20.28;28.32
76122;BME280;64853;53.200;6.080;2022-12-18T10:42:16;102630.66;;;20.27;28.72
76122;BME280;64853;53.200;6.080;2022-12-18T10:47:12;102648.09;;;20.27;28.29
76122;BME280;64853;53.200;6.080;2022-12-18T10:52:12;102655.84;;;20.25;28.42
76122;BME280;64853;53.200;6.080;2022-12-18T10:57:21;102645.59;;;20.26;28.78
76122;BME280;64853;53.200;6.080;2022-12-18T11:02:26;102634.50;;;20.26;28.60
76122;BME280;64853;53.200;6.080;2022-12-18T11:07:19;102616.25;;;20.25;28.76
76122;BME280;64853;53.200;6.080;2022-12-18T11:12:17;102615.22;;;20.31;29.01
76122;BME280;64853;53.200;6.080;2022-12-18T11:17:19;102600.72;;;20.46;29.61
76122;BME280;64853;53.200;6.080;2022-12-18T11:22:19;102607.72;;;20.53;29.84
76122;BME280;64853;53.200;6.080;2022-12-18T11:27:17;102598.09;;;20.61;29.11
76122;BME280;64853;53.200;6.080;2022-12-18T11:32:34;102602.84;;;20.66;28.98
76122;BME280;64853;53.200;6.080;2022-12-18T11:37:27;102597.34;;;20.71;29.25
76122;BME280;64853;53.200;6.080;2022-12-18T11:42:25;102591.28;;;20.74;29.00
76122;BME280;64853;53.200;6.080;2022-12-18T11:47:25;102574.16;;;20.77;29.02
76122;BME280;64853;53.200;6.080;2022-12-18T11:52:23;102565.22;;;20.70;28.77
76122;BME280;64853;53.200;6.080;2022-12-18T11:57:25;102540.81;;;20.67;28.28
76122;BME280;64853;53.200;6.080;2022-12-18T12:02:35;102533.03;;;20.64;28.75
76122;BME280;64853;53.200;6.080;2022-12-18T12:07:40;102513.06;;;20.62;28.56
76122;BME280;64853;53.200;6.080;2022-12-18T12:12:39;102508.88;;;20.59;28.65
76122;BME280;64853;53.200;6.080;2022-12-18T12:17:44;102490.75;;;20.41;28.37
76122;BME280;64853;53.200;6.080;2022-12-18T12:22:41;102475.06;;;20.19;28.75
76122;BME280;64853;53.200;6.080;2022-12-18T12:27:44;102480.44;;;20.04;27.71
76122;BME280;64853;53.200;6.080;2022-12-18T12:32:48;102471.09;;;20.10;28.16
76122;BME280;64853;53.200;6.080;2022-12-18T12:37:51;102465.63;;;20.20;27.79
76122;BME280;64853;53.200;6.080;2022-12-18T12:42:52;102461.34;;;20.35;28.31
76122;BME280;64853;53.200;6.080;2022-12-18T12:48:05;102453.41;;;20.44;27.70
76122;BME280;64853;53.200;6.080;2022-12-18T12:52:58;102443.78;;;20.51;27.93
76122;BME280;64853;53.200;6.080;2022-12-18T12:57:59;102425.78;;;20.54;27.62
76122;BME280;64853;53.200;6.080;2022-12-18T13:02:59;102432.75;;;20.62;27.49
76122;BME280;64853;53.200;6.080;2022-12-18T13:07:57;102417.56;;;20.64;27.35
76122;BME280;64853;53.200;6.080;2022-12-18T13:12:56;102417.28;;;20.66;27.61
76122;BME280;64853;53.200;6.080;2022-12-18T13:17:48;102422.84;;;20.66;27.70
76122;BME280;64853;53.200;6.080;2022-12-18T13:22:43;102413.13;;;20.68;27.61
76122;BME280;64853;53.200;6.080;2022-12-18T13:28:02;102404.81;;;20.68;28.05
76122;BME280;64853;53.200;6.080;2022-12-18T13:33:30;102406.78;;;20.68;28.04
76122;BME280;64853;53.200;6.080;2022-12-18T13:38:33;102411.22;;;20.69;28.01
76122;BME280;64853;53.200;6.080;2022-12-18T13:43:39;102399.53;;;20.62;27.72
76122;BME280;64853;53.200;6.080;2022-12-18T13:48:36;102409.28;;;20.69;27.68
76122;BME280;64853;53.200;6.080;2022-12-18T13:53:34;102392.66;;;20.69;27.60
76122;BME280;64853;53.200;6.080;2022-12-18T13:58:26;102398.19;;;20.69;28.15
76122;BME280;64853;53.200;6.080;2022-12-18T14:03:20;102389.06;;;20.69;27.88
76122;BME280;64853;53.200;6.080;2022-12-18T14:08:14;102381.03;;;20.67;28.03
76122;BME280;64853;53.200;6.080;2022-12-18T14:13:08;102368.25;;;20.66;28.16
76122;BME280;64853;53.200;6.080;2022-12-18T14:18:02;102368.53;;;20.65;27.78
76122;BME280;64853;53.200;6.080;2022-12-18T14:22:56;102364.09;;;20.64;28.34
76122;BME280;64853;53.200;6.080;2022-12-18T14:27:50;102354.13;;;20.63;28.23
76122;BME280;64853;53.200;6.080;2022-12-18T14:32:42;102334.75;;;20.63;28.32
76122;BME280;64853;53.200;6.080;2022-12-18T14:37:34;102315.63;;;20.61;28.26
76122;BME280;64853;53.200;6.080;2022-12-18T14:42:27;102297.59;;;20.59;28.23
76122;BME280;64853;53.200;6.080;2022-12-18T14:47:19;102294.28;;;20.57;27.91
76122;BME280;64853;53.200;6.080;2022-12-18T14:52:22;102290.38;;;20.58;28.19
76122;BME280;64853;53.200;6.080;2022-12-18T14:57:20;102279.63;;;20.56;28.39
76122;BME280;64853;53.200;6.080;2022-12-18T15:02:19;102273.22;;;20.55;28.32
76122;BME280;64853;53.200;6.080;2022-12-18T15:07:14;102269.91;;;20.53;27.92
76122;BME280;64853;53.200;6.080;2022-12-18T15:12:22;102265.44;;;20.52;28.42
76122;BME280;64853;53.200;6.080;2022-12-18T15:17:18;102262.13;;;20.50;28.45
76122;BME280;64853;53.200;6.080;2022-12-18T15:22:23;102252.16;;;20.49;28.11
76122;BME280;64853;53.200;6.080;2022-12-18T15:27:22;102252.16;;;20.49;28.33
76122;BME280;64853;53.200;6.080;2022-12-18T15:32:19;102227.50;;;20.48;27.94
76122;BME280;64853;53.200;6.080;2022-12-18T15:37:12;102222.22;;;20.46;28.03
76122;BME280;64853;53.200;6.080;2022-12-18T15:42:03;102216.97;;;20.45;28.50
76122;BME280;64853;53.200;6.080;2022-12-18T15:47:12;102197.84;;;20.43;28.26
76122;BME280;64853;53.200;6.080;2022-12-18T15:52:05;102179.59;;;20.42;28.35
76122;BME280;64853;53.200;6.080;2022-12-18T15:56:57;102171.28;;;20.42;27.94
76122;BME280;64853;53.200;6.080;2022-12-18T16:02:16;102164.09;;;20.41;27.88
76122;BME280;64853;53.200;6.080;2022-12-18T16:07:09;102155.78;;;20.41;28.33
76122;BME280;64853;53.200;6.080;2022-12-18T16:12:01;102143.88;;;20.41;28.35
76122;BME280;64853;53.200;6.080;2022-12-18T16:16:54;102148.56;;;20.40;28.24
76122;BME280;64853;53.200;6.080;2022-12-18T16:21:47;102152.47;;;20.39;27.87
76122;BME280;64853;53.200;6.080;2022-12-18T16:26:40;102151.59;;;20.38;28.11
76122;BME280;64853;53.200;6.080;2022-12-18T16:31:33;102160.75;;;20.39;27.76
76122;BME280;64853;53.200;6.080;2022-12-18T16:36:24;102159.09;;;20.43;28.01
76122;BME280;64853;53.200;6.080;2022-12-18T16:41:18;102154.16;;;20.55;28.58
76122;BME280;64853;53.200;6.080;2022-12-18T16:46:23;102140.63;;;20.69;28.54
76122;BME280;64853;53.200;6.080;2022-12-18T16:51:15;102143.13;;;20.81;28.87
76122;BME280;64853;53.200;6.080;2022-12-18T16:56:06;102132.06;;;20.86;28.81
76122;BME280;64853;53.200;6.080;2022-12-18T17:00:58;102121.81;;;20.92;28.53
76122;BME280;64853;53.200;6.080;2022-12-18T17:05:50;102105.44;;;20.96;28.35
76122;BME280;64853;53.200;6.080;2022-12-18T17:10:42;102087.44;;;20.98;28.68
76122;BME280;64853;53.200;6.080;2022-12-18T17:15:33;102080.53;;;21.01;28.23
76122;BME280;64853;53.200;6.080;2022-12-18T17:20:25;102076.94;;;21.05;28.18
76122;BME280;64853;53.200;6.080;2022-12-18T17:25:18;102064.47;;;20.98;28.43
76122;BME280;64853;53.200;6.080;2022-12-18T17:30:10;102078.31;;;20.92;28.30
76122;BME280;64853;53.200;6.080;2022-12-18T17:35:02;102093.28;;;20.91;28.02
76122;BME280;64853;53.200;6.080;2022-12-18T17:39:53;102082.47;;;20.95;28.74
76122;BME280;64853;53.200;6.080;2022-12-18T17:44:46;102076.09;;;20.95;28.25
76122;BME280;64853;53.200;6.080;2022-12-18T17:49:38;102057.81;;;20.94;28.52
76122;BME280;64853;53.200;6.080;2022-12-18T17:54:29;102030.09;;;20.94;28.31
76122;BME280;64853;53.200;6.080;2022-12-18T17:59:21;102024.00;;;20.91;28.01
76122;BME280;64853;53.200;6.080;2022-12-18T18:04:14;102038.97;;;20.90;27.97
76122;BME280;64853;53.200;6.080;2022-12-18T18:09:06;102042.28;;;20.87;28.04
76122;BME280;64853;53.200;6.080;2022-12-18T18:13:58;102043.41;;;20.86;28.01
76122;BME280;64853;53.200;6.080;2022-12-18T18:18:56;102033.44;;;20.85;28.62
76122;BME280;64853;53.200;6.080;2022-12-18T18:23:49;102024.00;;;20.81;28.34
76122;BME280;64853;53.200;6.080;2022-12-18T18:28:40;102027.34;;;20.83;28.22
76122;BME280;64853;53.200;6.080;2022-12-18T18:33:32;102022.34;;;20.85;28.45
76122;BME280;64853;53.200;6.080;2022-12-18T18:38:24;102017.09;;;20.94;28.95
76122;BME280;64853;53.200;6.080;2022-12-18T18:43:17;102029.81;;;21.05;28.91
76122;BME280;64853;53.200;6.080;2022-12-18T18:48:08;102018.44;;;21.17;29.05
76122;BME280;64853;53.200;6.080;2022-12-18T18:52:59;102000.41;;;21.25;28.52
76122;BME280;64853;53.200;6.080;2022-12-18T18:57:51;102004.56;;;21.33;28.98
76122;BME280;64853;53.200;6.080;2022-12-18T19:02:44;102002.28;;;21.40;28.70
76122;BME280;64853;53.200;6.080;2022-12-18T19:07:35;102006.19;;;21.44;28.46
76122;BME280;64853;53.200;6.080;2022-12-18T19:12:27;101995.34;;;21.48;28.65
76122;BME280;64853;53.200;6.080;2022-12-18T19:17:36;101993.13;;;21.50;28.75
76122;BME280;64853;53.200;6.080;2022-12-18T19:22:29;101989.22;;;21.51;28.38
76122;BME280;64853;53.200;6.080;2022-12-18T19:27:20;101988.94;;;21.52;28.67
76122;BME280;64853;53.200;6.080;2022-12-18T19:32:12;101979.00;;;21.51;28.72
76122;BME280;64853;53.200;6.080;2022-12-18T19:37:04;101969.53;;;21.52;28.58
76122;BME280;64853;53.200;6.080;2022-12-18T19:41:57;101977.25;;;21.60;28.61
76122;BME280;64853;53.200;6.080;2022-12-18T19:46:49;101978.31;;;21.70;28.18
76122;BME280;64853;53.200;6.080;2022-12-18T19:51:40;101980.00;;;21.71;28.37
76122;BME280;64853;53.200;6.080;2022-12-18T19:56:32;101952.00;;;21.67;28.42
76122;BME280;64853;53.200;6.080;2022-12-18T20:01:27;101959.72;;;21.80;28.77
76122;BME280;64853;53.200;6.080;2022-12-18T20:06:23;101935.56;;;21.86;28.53
76122;BME280;64853;53.200;6.080;2022-12-18T20:11:15;101927.78;;;21.88;28.63
76122;BME280;64853;53.200;6.080;2022-12-18T20:16:06;101948.53;;;21.91;28.01
76122;BME280;64853;53.200;6.080;2022-12-18T20:20:59;101951.03;;;21.92;28.09
76122;BME280;64853;53.200;6.080;2022-12-18T20:25:52;101959.34;;;21.92;28.48
76122;BME280;64853;53.200;6.080;2022-12-18T20:30:43;101948.25;;;21.97;28.56
76122;BME280;64853;53.200;6.080;2022-12-18T20:35:35;101940.16;;;22.01;28.40
76122;BME280;64853;53.200;6.080;2022-12-18T20:40:28;101928.25;;;21.95;28.35
76122;BME280;64853;53.200;6.080;2022-12-18T20:45:19;101922.75;;;21.90;28.04
76122;BME280;64853;53.200;6.080;2022-12-18T20:50:11;101922.78;;;21.85;27.86
76122;BME280;64853;53.200;6.080;2022-12-18T20:55:04;101917.81;;;21.82;28.25
76122;BME280;64853;53.200;6.080;2022-12-18T20:59:57;101913.94;;;21.78;28.29
76122;BME280;64853;53.200;6.080;2022-12-18T21:04:49;101911.72;;;21.75;28.19
76122;BME280;64853;53.200;6.080;2022-12-18T21:09:40;101912.56;;;21.70;27.94
76122;BME280;64853;53.200;6.080;2022-12-18T21:14:32;101907.34;;;21.69;27.97
76122;BME280;64853;53.200;6.080;2022-12-18T21:19:25;101899.31;;;21.62;27.98
76122;BME280;64853;53.200;6.080;2022-12-18T21:24:17;101886.88;;;21.59;27.77
76122;BME280;64853;53.200;6.080;2022-12-18T21:29:10;101884.19;;;21.44;27.55
76122;BME280;64853;53.200;6.080;2022-12-18T21:34:04;101893.91;;;21.36;27.95
76122;BME280;64853;53.200;6.080;2022-12-18T21:38:57;101893.09;;;21.36;27.75
76122;BME280;64853;53.200;6.080;2022-12-18T21:43:51;101880.63;;;21.33;27.63
76122;BME280;64853;53.200;6.080;2022-12-18T21:48:57;101881.47;;;21.28;27.40
76122;BME280;64853;53.200;6.080;2022-12-18T21:53:49;101876.78;;;21.24;27.30
76122;BME280;64853;53.200;6.080;2022-12-18T21:58:41;101871.03;;;21.15;27.51
76122;BME280;64853;53.200;6.080;2022-12-18T22:03:33;101861.06;;;21.09;27.37
76122;BME280;64853;53.200;6.080;2022-12-18T22:08:24;101855.53;;;21.04;27.15
76122;BME280;64853;53.200;6.080;2022-12-18T22:13:16;101847.22;;;20.99;27.05
76122;BME280;64853;53.200;6.080;2022-12-18T22:18:09;101836.19;;;20.88;27.18
76122;BME280;64853;53.200;6.080;2022-12-18T22:23:00;101830.13;;;20.81;27.54
76122;BME280;64853;53.200;6.080;2022-12-18T22:27:52;101832.13;;;20.70;27.37
76122;BME280;64853;53.200;6.080;2022-12-18T22:33:01;101816.06;;;20.62;27.40
76122;BME280;64853;53.200;6.080;2022-12-18T22:37:54;101803.06;;;20.58;27.44
76122;BME280;64853;53.200;6.080;2022-12-18T22:42:47;101781.50;;;20.49;27.80
76122;BME280;64853;53.200;6.080;2022-12-18T22:47:38;101773.78;;;20.41;27.76
76122;BME280;64853;53.200;6.080;2022-12-18T22:52:29;101773.78;;;20.36;27.88
76122;BME280;64853;53.200;6.080;2022-12-18T22:57:23;101771.56;;;20.33;27.79
76122;BME280;64853;53.200;6.080;2022-12-18T23:02:14;101761.03;;;20.30;27.68
76122;BME280;64853;53.200;6.080;2022-12-18T23:07:06;101752.19;;;20.23;27.72
76122;BME280;64853;53.200;6.080;2022-12-18T23:11:58;101760.22;;;20.19;27.67
76122;BME280;64853;53.200;6.080;2022-12-18T23:16:51;101743.09;;;20.12;28.05
76122;BME280;64853;53.200;6.080;2022-12-18T23:21:42;101740.06;;;20.08;27.80
76122;BME280;64853;53.200;6.080;2022-12-18T23:26:34;101727.34;;;20.02;27.82
76122;BME280;64853;53.200;6.080;2022-12-18T23:31:27;101723.50;;;19.98;27.83
76122;BME280;64853;53.200;6.080;2022-12-18T23:36:22;101706.91;;;19.93;28.09
76122;BME280;64853;53.200;6.080;2022-12-18T23:41:15;101715.19;;;19.88;27.91
76122;BME280;64853;53.200;6.080;2022-12-18T23:46:09;101708.59;;;19.83;27.87
76122;BME280;64853;53.200;6.080;2022-12-18T23:51:04;101691.44;;;19.76;27.93
76122;BME280;64853;53.200;6.080;2022-12-18T23:55:58;101678.72;;;19.75;27.60
